This is the latest recevied weather packets stored in our database for station/object KG5WBN. If no packets are shown the sender has not sent any weather packets the latest 10 day(s).
| Time | Temp. | Humidity | Pressure | Rain* | Wind** | Luminosity | Snow |
|---|---|---|---|---|---|---|---|
| 1777590468 | 24.44° C | 95% | 1009.8 hPa | 6.1 mm | - | 3 W/m² | - |
| 1777590165 | 24.44° C | 94% | 1009.8 hPa | 6.1 mm | - | 1 W/m² | - |
| 1777589862 | 24.44° C | 94% | 1009.5 hPa | 7.11 mm | - | 0 W/m² | - |
| 1777589557 | 24.44° C | 93% | 1009.1 hPa | 4.32 mm | - | 8 W/m² | - |
| 1777589256 | 24.44° C | 92% | 1010.2 hPa | 6.6 mm | - | 5 W/m² | - |
| 1777588953 | 24.44° C | 91% | 1009.5 hPa | 4.83 mm | - | 3 W/m² | - |
| 1777588648 | 24.44° C | 90% | 1009.1 hPa | 3.05 mm | - | 4 W/m² | - |
| 1777588344 | 24.44° C | 89% | 1009.1 hPa | 3.05 mm | - | 2 W/m² | - |
| 1777588040 | 24.44° C | 87% | 1009.1 hPa | 3.05 mm | - | 1 W/m² | - |
| 1777587736 | 24.44° C | 86% | 1009.5 hPa | 3.05 mm | - | 1 W/m² | - |
| 1777587430 | 24.44° C | 85% | 1008.8 hPa | 3.05 mm | - | 3 W/m² | - |
| 1777587128 | 24.44° C | 84% | 1008.8 hPa | 1.27 mm | - | 6 W/m² | - |
| 1777586823 | 24.44° C | 83% | 1009.1 hPa | 0 mm | - | 8 W/m² | - |
| 1777586518 | 24.44° C | 81% | 1009.1 hPa | 0 mm | - | 6 W/m² | - |
| 1777586213 | 24.44° C | 80% | 1009.1 hPa | 0 mm | - | 7 W/m² | - |
| 1777585912 | 25° C | 79% | 1009.1 hPa | 0 mm | - | 7 W/m² | - |
| 1777585606 | 24.44° C | 79% | 1009.1 hPa | 0 mm | - | 2 W/m² | - |
| 1777585301 | 25° C | 79% | 1009.1 hPa | 0 mm | - | 4 W/m² | - |
| 1777584996 | 25° C | 80% | 1009.1 hPa | 0 mm | - | 7 W/m² | - |
| 1777584694 | 25° C | 80% | 1009.1 hPa | 0 mm | - | 6 W/m² | - |
| 1777584391 | 25° C | 80% | 1009.1 hPa | 0 mm | - | 9 W/m² | - |
| 1777584087 | 25° C | 80% | 1009.1 hPa | 0 mm | - | 18 W/m² | - |
| 1777583787 | 25° C | 79% | 1009.1 hPa | 0 mm | - | 17 W/m² | - |
| 1777583487 | 25° C | 79% | 1009.1 hPa | 0 mm | - | 13 W/m² | - |
| 1777583181 | 25° C | 77% | 1009.1 hPa | 0 mm | - | 24 W/m² | - |
* Rain latest hour (hover to see other rain measurements)
** Current wind speed in m/s (hover to see current wind gust speed)